Time;durP1;ratioP1;P1;durP2;ratioP2;P2;SDS_P1;SDS_P2;PMS_P1;PMS_P2;Temp;Humidity;BMP_temperature;BMP_pressure;BME280_temperature;BME280_humidity;BME280_pressure;Samples;Min_cycle;Max_cycle;Signal;HPM_P1;HPM_P2
2022/04/22 00:00:09;;;;;;;70.95;12.35;;;;;;;;;;5074133;28;20056;-68
2022/04/22 00:03:13;;;;;;;70.43;10.48;;;;;;;;;;5074170;28;20115;-70
2022/04/22 00:06:18;;;;;;;66.00;10.77;;;;;;;;;;5074171;28;20427;-70
2022/04/22 00:09:23;;;;;;;64.13;9.50;;;;;;;;;;5074178;28;20411;-70
2022/04/22 00:12:27;;;;;;;57.05;10.45;;;;;;;;;;5074078;28;20507;-70
2022/04/22 00:15:31;;;;;;;55.20;8.80;;;;;;;;;;5073959;28;20044;-69
2022/04/22 00:18:36;;;;;;;48.38;8.98;;;;;;;;;;5074400;28;20052;-69
2022/04/22 00:21:42;;;;;;;53.25;9.02;;;;;;;;;;5073810;28;20036;-69
2022/04/22 00:24:46;;;;;;;53.20;9.57;;;;;;;;;;5074128;28;20491;-69
2022/04/22 00:27:50;;;;;;;51.33;10.23;;;;;;;;;;5073744;28;20040;-70
2022/04/22 00:30:54;;;;;;;48.65;9.60;;;;;;;;;;5073168;28;20059;-70
2022/04/22 00:33:59;;;;;;;30.38;5.72;;;;;;;;;;5073585;28;20043;-70
2022/04/22 00:37:03;;;;;;;27.77;4.88;;;;;;;;;;5073599;28;20048;-70
2022/04/22 00:40:08;;;;;;;26.38;4.65;;;;;;;;;;5073464;28;20461;-70
2022/04/22 00:43:25;;;;;;;18.55;4.15;;;;;;;;;;5073367;28;20044;-71
2022/04/22 00:46:29;;;;;;;18.90;4.22;;;;;;;;;;5073792;28;20059;-70
2022/04/22 00:49:34;;;;;;;24.00;4.32;;;;;;;;;;5072660;28;20048;-70
2022/04/22 00:52:39;;;;;;;25.10;3.75;;;;;;;;;;5073505;28;20515;-70
2022/04/22 00:55:45;;;;;;;25.00;4.47;;;;;;;;;;5072710;28;20499;-70
2022/04/22 00:58:50;;;;;;;26.23;4.05;;;;;;;;;;5073310;28;20051;-69
2022/04/22 01:01:54;;;;;;;23.38;4.60;;;;;;;;;;5073674;28;20450;-69
2022/04/22 01:11:44;;;;;;;27.80;4.82;;;;;;;;;;5072960;28;20528;-69
2022/04/22 01:14:49;;;;;;;24.17;4.50;;;;;;;;;;5073295;28;20197;-69
2022/04/22 01:17:53;;;;;;;25.88;3.83;;;;;;;;;;5072206;28;20398;-69
2022/04/22 01:21:01;;;;;;;22.58;4.07;;;;;;;;;;5073059;28;20496;-69
2022/04/22 01:24:06;;;;;;;22.48;4.50;;;;;;;;;;5073046;28;20055;-71
2022/04/22 01:27:10;;;;;;;21.88;4.05;;;;;;;;;;5073554;28;20397;-69
2022/04/22 01:30:15;;;;;;;20.17;3.95;;;;;;;;;;5072933;28;20047;-69
2022/04/22 01:33:19;;;;;;;25.10;3.55;;;;;;;;;;5072495;28;20392;-69
2022/04/22 01:36:23;;;;;;;24.63;4.45;;;;;;;;;;5072841;28;20047;-71
2022/04/22 01:39:30;;;;;;;22.20;3.97;;;;;;;;;;5072486;28;20051;-69
2022/04/22 01:42:34;;;;;;;25.67;4.65;;;;;;;;;;5072090;28;20043;-69
2022/04/22 01:45:38;;;;;;;20.23;3.70;;;;;;;;;;5072839;28;20063;-69
2022/04/22 01:48:43;;;;;;;24.00;3.63;;;;;;;;;;5071623;28;20518;-69
2022/04/22 01:51:47;;;;;;;20.05;4.60;;;;;;;;;;5071934;28;20040;-69
2022/04/22 01:54:54;;;;;;;21.27;4.30;;;;;;;;;;5071999;28;20043;-69
2022/04/22 01:57:58;;;;;;;21.00;3.95;;;;;;;;;;5071913;28;20106;-69
2022/04/22 02:01:02;;;;;;;24.80;3.35;;;;;;;;;;5071781;28;20052;-69
2022/04/22 02:04:07;;;;;;;22.73;3.38;;;;;;;;;;5059525;28;20039;-69
2022/04/22 02:07:11;;;;;;;18.95;3.30;;;;;;;;;;5071573;28;20055;-70
2022/04/22 02:10:16;;;;;;;14.07;2.90;;;;;;;;;;5071859;28;20507;-69
2022/04/22 02:13:21;;;;;;;20.65;2.97;;;;;;;;;;5071129;28;20063;-68
2022/04/22 02:16:25;;;;;;;19.77;3.30;;;;;;;;;;5071851;28;20523;-69
2022/04/22 02:19:29;;;;;;;23.42;3.00;;;;;;;;;;5072075;28;20051;-69
2022/04/22 02:22:34;;;;;;;18.08;3.38;;;;;;;;;;5071494;28;20282;-70
2022/04/22 02:25:39;;;;;;;26.83;3.22;;;;;;;;;;5071742;28;20217;-69
2022/04/22 02:28:43;;;;;;;22.35;3.28;;;;;;;;;;5071801;28;20500;-69
2022/04/22 02:31:48;;;;;;;18.20;2.70;;;;;;;;;;5071577;28;20048;-69
2022/04/22 02:34:52;;;;;;;17.75;2.78;;;;;;;;;;5071384;28;20039;-70
2022/04/22 02:37:57;;;;;;;20.25;3.20;;;;;;;;;;5071611;28;20522;-69
2022/04/22 02:47:47;;;;;;;22.25;3.83;;;;;;;;;;5071211;28;20040;-70
2022/04/22 02:50:52;;;;;;;22.75;3.65;;;;;;;;;;5071265;28;20052;-70
2022/04/22 02:53:56;;;;;;;22.17;3.38;;;;;;;;;;5071220;28;20044;-71
2022/04/22 02:57:01;;;;;;;16.17;2.80;;;;;;;;;;5071345;28;20052;-68
2022/04/22 03:00:06;;;;;;;14.90;2.63;;;;;;;;;;5070949;28;20511;-68
2022/04/22 03:03:10;;;;;;;18.10;3.15;;;;;;;;;;5070811;28;20039;-69
2022/04/22 03:06:14;;;;;;;21.95;3.20;;;;;;;;;;5071202;28;20385;-69
2022/04/22 03:09:19;;;;;;;23.67;2.47;;;;;;;;;;5071178;28;20059;-71
2022/04/22 03:12:23;;;;;;;20.45;2.67;;;;;;;;;;5071035;28;20051;-70
2022/04/22 03:15:28;;;;;;;16.90;3.25;;;;;;;;;;5071087;28;20063;-70
2022/04/22 03:18:32;;;;;;;21.38;3.25;;;;;;;;;;5073780;28;20047;-70
2022/04/22 03:21:37;;;;;;;20.77;2.90;;;;;;;;;;5077433;28;20052;-70
2022/04/22 03:24:42;;;;;;;23.25;2.92;;;;;;;;;;5077497;28;20047;-70
2022/04/22 03:27:47;;;;;;;16.45;2.85;;;;;;;;;;5077663;28;20047;-70
2022/04/22 03:30:51;;;;;;;14.68;3.10;;;;;;;;;;5076514;28;20044;-70
2022/04/22 03:33:55;;;;;;;12.43;2.13;;;;;;;;;;5076898;28;20309;-70
2022/04/22 03:37:00;;;;;;;32.65;3.65;;;;;;;;;;5064881;28;20297;-70
2022/04/22 03:40:05;;;;;;;15.90;2.30;;;;;;;;;;5076478;28;20051;-70
2022/04/22 03:43:10;;;;;;;12.00;2.10;;;;;;;;;;5077342;28;20043;-70
2022/04/22 03:46:15;;;;;;;15.80;2.50;;;;;;;;;;5076707;28;20044;-69
2022/04/22 03:49:19;;;;;;;20.67;2.80;;;;;;;;;;5076642;28;20186;-71
2022/04/22 03:52:23;;;;;;;14.52;3.45;;;;;;;;;;5077101;28;20240;-70
2022/04/22 03:55:28;;;;;;;16.85;2.55;;;;;;;;;;5077358;28;20043;-71
2022/04/22 03:58:32;;;;;;;20.80;2.97;;;;;;;;;;5077325;28;20051;-71
2022/04/22 04:01:37;;;;;;;17.95;2.83;;;;;;;;;;5076427;28;20059;-72
2022/04/22 04:04:41;;;;;;;10.98;2.28;;;;;;;;;;5076596;28;20428;-72
2022/04/22 04:07:46;;;;;;;15.98;2.15;;;;;;;;;;5076997;28;20060;-70
2022/04/22 04:17:41;;;;;;;16.33;2.15;;;;;;;;;;5076678;28;20040;-71
2022/04/22 04:24:08;;;;;;;13.45;2.08;;;;;;;;;;5075947;28;20060;-71
2022/04/22 04:27:12;;;;;;;15.23;2.10;;;;;;;;;;5076837;28;20052;-72
2022/04/22 04:30:17;;;;;;;11.40;1.92;;;;;;;;;;5073943;28;20051;-71
2022/04/22 04:33:21;;;;;;;12.38;1.90;;;;;;;;;;5073705;28;20040;-71
2022/04/22 04:36:26;;;;;;;10.15;1.60;;;;;;;;;;5073855;28;20048;-71
2022/04/22 04:39:30;;;;;;;8.55;1.75;;;;;;;;;;5072793;28;20503;-71
2022/04/22 04:42:34;;;;;;;12.43;1.88;;;;;;;;;;5073209;28;20040;-71
2022/04/22 04:45:39;;;;;;;10.15;2.08;;;;;;;;;;5073429;28;20039;-71
2022/04/22 04:48:43;;;;;;;15.70;3.03;;;;;;;;;;5073633;28;20424;-71
2022/04/22 04:51:47;;;;;;;12.93;2.90;;;;;;;;;;5073224;28;20039;-71
2022/04/22 04:54:52;;;;;;;8.68;2.38;;;;;;;;;;5073273;28;20040;-71
2022/04/22 04:57:56;;;;;;;19.98;2.40;;;;;;;;;;5073538;28;20032;-73
2022/04/22 05:01:01;;;;;;;8.55;1.80;;;;;;;;;;5073215;28;20408;-70
2022/04/22 05:04:05;;;;;;;9.07;1.90;;;;;;;;;;5073134;28;20041;-72
2022/04/22 05:07:10;;;;;;;9.68;1.52;;;;;;;;;;5073096;28;20052;-70
2022/04/22 05:10:15;;;;;;;12.80;1.25;;;;;;;;;;5072349;28;20048;-70
2022/04/22 05:13:19;;;;;;;12.38;1.88;;;;;;;;;;5073215;28;20047;-70
2022/04/22 05:16:24;;;;;;;11.00;1.40;;;;;;;;;;5073046;28;20047;-72
2022/04/22 05:19:28;;;;;;;11.32;1.83;;;;;;;;;;5072746;28;20055;-69
2022/04/22 05:22:32;;;;;;;8.52;1.40;;;;;;;;;;5072997;28;20052;-71
2022/04/22 05:25:37;;;;;;;12.85;1.60;;;;;;;;;;5072993;28;20032;-69
2022/04/22 05:28:41;;;;;;;9.57;2.15;;;;;;;;;;5072799;28;20051;-69
2022/04/22 05:35:09;;;;;;;14.27;2.67;;;;;;;;;;5072559;28;20039;-68
2022/04/22 05:38:15;;;;;;;8.18;2.00;;;;;;;;;;5071683;28;20257;-68
2022/04/22 05:41:19;;;;;;;5.80;1.70;;;;;;;;;;5072221;28;20048;-68
2022/04/22 05:44:24;;;;;;;10.48;2.05;;;;;;;;;;5072365;28;20036;-68
2022/04/22 05:47:28;;;;;;;14.90;2.80;;;;;;;;;;5072895;28;20047;-69
2022/04/22 05:50:33;;;;;;;9.65;2.40;;;;;;;;;;5071143;28;20063;-68
2022/04/22 05:53:37;;;;;;;20.17;3.38;;;;;;;;;;5072175;28;20505;-69
2022/04/22 05:56:41;;;;;;;15.68;2.72;;;;;;;;;;5071000;28;20051;-68
2022/04/22 05:59:48;;;;;;;22.23;2.92;;;;;;;;;;5071074;28;20063;-68
2022/04/22 06:02:52;;;;;;;20.98;3.08;;;;;;;;;;5071711;28;20102;-68
2022/04/22 06:05:56;;;;;;;20.67;3.33;;;;;;;;;;5071701;28;20040;-69
2022/04/22 06:12:24;;;;;;;29.95;3.20;;;;;;;;;;5071643;28;20115;-69
2022/04/22 06:15:29;;;;;;;31.67;4.00;;;;;;;;;;5072222;28;20372;-68
2022/04/22 06:18:33;;;;;;;26.45;3.85;;;;;;;;;;5071321;28;20051;-68
2022/04/22 06:21:37;;;;;;;19.33;3.60;;;;;;;;;;5071749;28;20055;-70
2022/04/22 06:24:42;;;;;;;28.15;3.17;;;;;;;;;;5071656;28;20047;-67
2022/04/22 06:27:46;;;;;;;21.85;3.60;;;;;;;;;;5070119;28;20051;-68
2022/04/22 06:30:51;;;;;;;17.08;2.72;;;;;;;;;;5070960;28;20039;-70
2022/04/22 06:33:56;;;;;;;20.15;2.88;;;;;;;;;;5071038;28;20082;-69
2022/04/22 06:37:02;;;;;;;19.25;2.53;;;;;;;;;;5070799;28;20214;-68
2022/04/22 06:46:54;;;;;;;19.95;3.42;;;;;;;;;;5070080;28;20043;-69
2022/04/22 06:49:58;;;;;;;15.45;2.42;;;;;;;;;;5070028;28;20048;-66
2022/04/22 06:53:03;;;;;;;15.65;2.13;;;;;;;;;;5069539;28;20396;-69
2022/04/22 06:56:07;;;;;;;17.70;2.40;;;;;;;;;;5070482;28;20072;-70
2022/04/22 06:59:12;;;;;;;16.52;2.10;;;;;;;;;;5070333;28;20060;-67
2022/04/22 07:02:16;;;;;;;13.52;2.40;;;;;;;;;;5070584;28;20047;-67
2022/04/22 07:05:21;;;;;;;14.43;2.70;;;;;;;;;;5071358;28;20043;-68
2022/04/22 07:08:25;;;;;;;14.32;2.70;;;;;;;;;;5070702;28;20149;-69
2022/04/22 07:11:30;;;;;;;17.88;2.20;;;;;;;;;;5069610;28;20218;-68
2022/04/22 07:14:35;;;;;;;11.80;2.13;;;;;;;;;;5070925;28;20039;-68
2022/04/22 07:17:40;;;;;;;12.13;2.08;;;;;;;;;;5069734;28;20503;-69
2022/04/22 07:20:45;;;;;;;18.63;2.47;;;;;;;;;;5070166;28;20067;-68
2022/04/22 07:23:49;;;;;;;8.48;2.03;;;;;;;;;;5070588;28;20043;-68
2022/04/22 07:26:55;;;;;;;12.82;2.50;;;;;;;;;;5070449;28;20385;-66
2022/04/22 07:30:00;;;;;;;13.23;1.90;;;;;;;;;;5070384;28;20048;-67
2022/04/22 07:33:04;;;;;;;14.80;2.95;;;;;;;;;;5070753;28;20063;-66
2022/04/22 07:36:08;;;;;;;19.02;2.70;;;;;;;;;;5070576;28;20052;-67
2022/04/22 07:39:13;;;;;;;27.42;2.90;;;;;;;;;;5070459;28;20051;-69
2022/04/22 07:42:22;;;;;;;16.42;2.60;;;;;;;;;;5070400;28;20051;-67
2022/04/22 07:48:49;;;;;;;16.70;2.50;;;;;;;;;;5070321;28;20044;-68
2022/04/22 07:51:54;;;;;;;15.40;2.78;;;;;;;;;;5070275;28;20047;-67
2022/04/22 07:54:59;;;;;;;10.90;1.98;;;;;;;;;;5070346;28;20119;-67
2022/04/22 07:58:03;;;;;;;17.23;2.92;;;;;;;;;;5070135;28;20044;-67
2022/04/22 08:01:08;;;;;;;19.50;2.50;;;;;;;;;;5070041;28;20051;-68
2022/04/22 08:04:13;;;;;;;14.82;2.95;;;;;;;;;;5070839;28;20040;-70
2022/04/22 08:07:18;;;;;;;22.08;3.25;;;;;;;;;;5073241;28;20408;-68
2022/04/22 08:10:22;;;;;;;14.57;2.80;;;;;;;;;;5074494;28;20396;-67
2022/04/22 08:13:26;;;;;;;14.80;2.45;;;;;;;;;;5073045;28;20051;-67
2022/04/22 08:16:31;;;;;;;14.82;2.85;;;;;;;;;;5074004;28;20383;-68
2022/04/22 08:19:35;;;;;;;17.23;2.42;;;;;;;;;;5073690;28;20056;-68
2022/04/22 08:22:40;;;;;;;12.32;2.13;;;;;;;;;;5073310;28;20040;-67
2022/04/22 08:25:44;;;;;;;15.30;2.35;;;;;;;;;;5071535;28;20051;-67
2022/04/22 08:28:48;;;;;;;19.90;2.80;;;;;;;;;;5072052;28;20051;-69
2022/04/22 08:31:53;;;;;;;14.77;2.58;;;;;;;;;;5072718;28;20507;-66
2022/04/22 08:34:57;;;;;;;15.65;3.17;;;;;;;;;;5073034;28;20055;-68
2022/04/22 08:38:03;;;;;;;23.38;3.25;;;;;;;;;;5073089;28;20063;-68
2022/04/22 08:41:08;;;;;;;12.98;2.58;;;;;;;;;;5073068;28;20056;-67
2022/04/22 08:44:13;;;;;;;18.30;2.83;;;;;;;;;;5073448;28;20491;-69
2022/04/22 08:50:42;;;;;;;13.18;1.98;;;;;;;;;;5073433;28;20043;-70
2022/04/22 08:53:51;;;;;;;19.30;2.60;;;;;;;;;;5073047;28;20047;-69
2022/04/22 08:56:56;;;;;;;26.92;2.55;;;;;;;;;;5073011;28;20118;-67
2022/04/22 09:00:00;;;;;;;17.17;2.92;;;;;;;;;;5072482;28;20071;-68
2022/04/22 09:03:05;;;;;;;16.05;2.20;;;;;;;;;;5073066;28;20043;-70
2022/04/22 09:06:09;;;;;;;20.83;2.45;;;;;;;;;;5072369;28;20056;-66
2022/04/22 09:09:13;;;;;;;15.65;2.20;;;;;;;;;;5072789;28;20610;-67
2022/04/22 09:12:24;;;;;;;12.23;2.65;;;;;;;;;;5072853;28;20063;-67
2022/04/22 09:15:30;;;;;;;;;;;;;;;;;;5072874;28;20044;-67
2022/04/22 09:18:37;;;;;;;21.05;2.78;;;;;;;;;;5072618;28;19920;-66
2022/04/22 09:21:42;;;;;;;15.63;2.63;;;;;;;;;;5072836;28;20048;-66
2022/04/22 09:24:47;;;;;;;11.75;2.40;;;;;;;;;;5072445;28;20059;-66
2022/04/22 09:27:52;;;;;;;14.02;2.88;;;;;;;;;;5071703;28;20051;-67
2022/04/22 09:31:06;;;;;;;14.90;2.13;;;;;;;;;;5072301;28;20036;-70
2022/04/22 09:34:11;;;;;;;23.77;2.70;;;;;;;;;;5071257;28;20499;-69
2022/04/22 09:44:15;;;;;;;10.65;2.50;;;;;;;;;;5071512;28;20048;-69
2022/04/22 09:47:20;;;;;;;9.15;1.48;;;;;;;;;;5071878;28;20048;-71
2022/04/22 09:50:39;;;;;;;6.10;1.50;;;;;;;;;;5071730;28;20044;-69
2022/04/22 09:53:44;;;;;;;7.22;1.77;;;;;;;;;;5072022;28;20044;-70
2022/04/22 09:57:00;;;;;;;7.85;1.20;;;;;;;;;;5071880;28;20036;-68
2022/04/22 10:00:04;;;;;;;5.05;1.10;;;;;;;;;;5070740;28;20191;-68
2022/04/22 10:03:12;;;;;;;9.25;1.67;;;;;;;;;;5071650;28;20036;-68
2022/04/22 10:06:18;;;;;;;14.20;2.63;;;;;;;;;;5071661;28;20037;-68
2022/04/22 10:09:23;;;;;;;13.40;2.42;;;;;;;;;;5071611;28;20055;-69
2022/04/22 10:12:28;;;;;;;21.08;2.35;;;;;;;;;;5070484;28;20043;-68
2022/04/22 10:15:37;;;;;;;11.95;2.22;;;;;;;;;;5071602;28;20071;-67
2022/04/22 10:18:43;;;;;;;10.82;2.05;;;;;;;;;;5071513;28;20067;-68
2022/04/22 10:21:50;;;;;;;15.63;2.00;;;;;;;;;;5071434;28;20051;-67
2022/04/22 10:24:55;;;;;;;8.65;1.80;;;;;;;;;;5071287;28;20047;-67
2022/04/22 10:28:01;;;;;;;11.25;2.00;;;;;;;;;;5070355;28;20045;-68
2022/04/22 10:31:06;;;;;;;11.68;2.20;;;;;;;;;;5071353;28;20051;-67
2022/04/22 10:34:11;;;;;;;10.23;1.77;;;;;;;;;;5071105;28;20052;-67
2022/04/22 10:37:16;;;;;;;10.05;2.25;;;;;;;;;;5070672;28;20043;-67
2022/04/22 10:40:25;;;;;;;20.45;2.28;;;;;;;;;;5071084;28;20056;-68
2022/04/22 10:43:30;;;;;;;21.00;3.70;;;;;;;;;;5071204;28;20043;-67
2022/04/22 10:49:57;;;;;;;10.38;2.05;;;;;;;;;;5071395;28;20048;-68
2022/04/22 10:53:03;;;;;;;10.98;2.15;;;;;;;;;;5070942;28;20051;-67
2022/04/22 10:56:26;;;;;;;24.85;3.08;;;;;;;;;;5071029;28;20051;-66
2022/04/22 10:59:32;;;;;;;23.40;2.97;;;;;;;;;;5070902;28;20045;-66
2022/04/22 11:02:41;;;;;;;12.68;2.60;;;;;;;;;;5070693;28;20067;-67
2022/04/22 11:05:53;;;;;;;12.20;2.05;;;;;;;;;;5070827;28;20048;-67
2022/04/22 11:08:59;;;;;;;11.07;2.05;;;;;;;;;;5070978;28;20060;-68
2022/04/22 11:12:04;;;;;;;9.50;1.85;;;;;;;;;;5070820;28;20060;-68
2022/04/22 11:15:11;;;;;;;9.90;1.80;;;;;;;;;;5071031;28;20041;-67
2022/04/22 11:18:16;;;;;;;10.25;2.60;;;;;;;;;;5071262;28;20041;-69
2022/04/22 11:21:20;;;;;;;8.38;1.70;;;;;;;;;;5071075;28;20056;-67
2022/04/22 11:24:33;;;;;;;9.57;2.05;;;;;;;;;;5069639;28;20041;-67
2022/04/22 11:27:37;;;;;;;12.40;2.22;;;;;;;;;;5069922;28;20045;-65
2022/04/22 11:30:43;;;;;;;7.15;1.55;;;;;;;;;;5070473;28;20060;-68
2022/04/22 11:33:54;;;;;;;4.68;1.17;;;;;;;;;;5070475;28;20036;-67
2022/04/22 11:36:59;;;;;;;5.43;0.90;;;;;;;;;;5070493;28;20037;-67
2022/04/22 11:40:05;;;;;;;4.75;0.90;;;;;;;;;;5072599;28;20044;-66
2022/04/22 11:43:10;;;;;;;5.35;1.30;;;;;;;;;;5074717;28;20484;-67
2022/04/22 11:46:18;;;;;;;6.72;1.30;;;;;;;;;;5074351;28;20480;-68
2022/04/22 11:49:22;;;;;;;10.05;1.60;;;;;;;;;;5074330;28;20029;-68
2022/04/22 11:52:29;;;;;;;4.63;1.20;;;;;;;;;;5074734;28;20052;-68
2022/04/22 11:55:33;;;;;;;7.55;2.28;;;;;;;;;;5074478;28;20045;-67
2022/04/22 11:58:38;;;;;;;4.78;1.30;;;;;;;;;;5074272;28;20484;-68
2022/04/22 12:08:28;;;;;;;7.88;1.90;;;;;;;;;;5073766;28;20191;-68
2022/04/22 12:11:38;;;;;;;9.68;2.83;;;;;;;;;;5073357;28;20041;-67
2022/04/22 12:14:43;;;;;;;10.87;2.37;;;;;;;;;;5072640;28;20041;-68
2022/04/22 12:17:47;;;;;;;8.15;1.50;;;;;;;;;;5061602;28;20043;-68
2022/04/22 12:20:52;;;;;;;4.72;1.17;;;;;;;;;;5073298;28;20049;-69
2022/04/22 12:24:02;;;;;;;3.30;0.98;;;;;;;;;;5073918;28;20423;-67
2022/04/22 12:27:20;;;;;;;5.50;1.50;;;;;;;;;;5073621;28;20036;-68
2022/04/22 12:30:34;;;;;;;6.15;1.45;;;;;;;;;;5071244;28;20044;-68
2022/04/22 12:33:38;;;;;;;10.57;2.28;;;;;;;;;;5073566;28;20041;-70
2022/04/22 12:36:51;;;;;;;5.45;1.77;;;;;;;;;;5074156;28;20040;-69
2022/04/22 12:40:07;;;;;;;5.28;1.80;;;;;;;;;;5073122;28;20040;-68
2022/04/22 12:43:28;;;;;;;6.35;1.73;;;;;;;;;;5072776;28;20040;-68
2022/04/22 12:53:52;;;;;;;6.20;1.30;;;;;;;;;;5072390;28;20044;-67
2022/04/22 12:56:56;;;;;;;5.28;1.40;;;;;;;;;;5072253;28;20033;-67
2022/04/22 13:00:00;;;;;;;4.47;1.02;;;;;;;;;;5073190;28;20044;-66
2022/04/22 13:03:04;;;;;;;3.83;0.90;;;;;;;;;;5073200;28;20472;-67
2022/04/22 13:06:09;;;;;;;3.80;1.13;;;;;;;;;;5060559;28;20036;-67
2022/04/22 13:09:14;;;;;;;5.43;0.98;;;;;;;;;;5072104;28;20041;-68
2022/04/22 13:12:18;;;;;;;4.45;0.80;;;;;;;;;;5072746;28;20041;-68
2022/04/22 13:15:22;;;;;;;2.72;0.90;;;;;;;;;;5072763;28;20041;-67
2022/04/22 13:18:27;;;;;;;3.55;0.70;;;;;;;;;;5072823;28;20484;-66
2022/04/22 13:21:31;;;;;;;3.00;0.80;;;;;;;;;;5072146;28;20378;-68
2022/04/22 13:24:36;;;;;;;2.30;0.80;;;;;;;;;;5071881;28;20036;-68
2022/04/22 13:27:40;;;;;;;3.83;1.80;;;;;;;;;;5072369;28;20036;-68
2022/04/22 13:30:45;;;;;;;3.67;1.17;;;;;;;;;;5072348;28;20033;-70
2022/04/22 13:33:50;;;;;;;3.83;1.63;;;;;;;;;;5072537;28;20044;-68
2022/04/22 13:36:54;;;;;;;5.10;1.13;;;;;;;;;;5072345;28;20060;-69
2022/04/22 13:39:58;;;;;;;3.67;0.90;;;;;;;;;;5072452;28;20044;-69
2022/04/22 13:43:03;;;;;;;5.47;1.42;;;;;;;;;;5072267;28;20036;-68
2022/04/22 13:52:53;;;;;;;3.88;0.80;;;;;;;;;;5071998;28;20477;-68
2022/04/22 13:55:57;;;;;;;2.95;0.90;;;;;;;;;;5071909;28;20036;-67
2022/04/22 13:59:02;;;;;;;1.95;0.80;;;;;;;;;;5072042;28;20370;-68
2022/04/22 14:02:06;;;;;;;1.90;0.75;;;;;;;;;;5071337;28;20044;-68
2022/04/22 14:05:10;;;;;;;2.25;0.70;;;;;;;;;;5071979;28;20044;-69
2022/04/22 14:08:15;;;;;;;1.73;0.90;;;;;;;;;;5071798;28;20052;-69
2022/04/22 14:11:19;;;;;;;1.75;0.82;;;;;;;;;;5071606;28;20044;-68
2022/04/22 14:14:25;;;;;;;2.03;1.10;;;;;;;;;;5071693;28;20048;-68
2022/04/22 14:17:29;;;;;;;3.53;1.10;;;;;;;;;;5071770;28;20032;-68
2022/04/22 14:20:34;;;;;;;7.43;1.88;;;;;;;;;;5070518;28;20488;-69
2022/04/22 14:23:37;;;;;;;2.80;1.10;;;;;;;;;;5071626;28;20041;-69
2022/04/22 14:26:42;;;;;;;5.97;1.08;;;;;;;;;;5070503;28;20041;-68
2022/04/22 14:29:47;;;;;;;3.35;0.90;;;;;;;;;;5071468;28;20037;-69
2022/04/22 14:32:52;;;;;;;4.63;1.10;;;;;;;;;;5071593;28;20036;-69
2022/04/22 14:35:56;;;;;;;4.43;1.80;;;;;;;;;;5071549;28;20036;-67
2022/04/22 14:39:00;;;;;;;3.95;1.00;;;;;;;;;;5071069;28;20044;-69
2022/04/22 14:42:05;;;;;;;3.65;0.80;;;;;;;;;;5071220;28;20060;-69
2022/04/22 14:45:09;;;;;;;2.92;0.75;;;;;;;;;;5070962;28;20394;-68
2022/04/22 14:48:13;;;;;;;2.72;0.70;;;;;;;;;;5071000;28;20066;-70
2022/04/22 14:51:17;;;;;;;1.77;0.50;;;;;;;;;;5070323;28;20041;-69
2022/04/22 14:54:22;;;;;;;0.55;0.40;;;;;;;;;;5071162;28;20040;-67
2022/04/22 14:57:26;;;;;;;5.38;0.70;;;;;;;;;;5071111;28;20473;-66
2022/04/22 15:00:34;;;;;;;2.30;0.32;;;;;;;;;;5070471;28;20048;-67
2022/04/22 15:03:38;;;;;;;8.82;0.90;;;;;;;;;;5070824;28;20040;-65
2022/04/22 15:06:42;;;;;;;0.45;0.30;;;;;;;;;;5070399;28;20472;-67
2022/04/22 15:09:47;;;;;;;1.73;0.60;;;;;;;;;;5069925;28;20041;-67
2022/04/22 15:12:51;;;;;;;0.68;0.47;;;;;;;;;;5070694;28;20377;-68
2022/04/22 15:15:55;;;;;;;1.13;0.60;;;;;;;;;;5069446;28;20032;-67
2022/04/22 15:25:46;;;;;;;1.98;1.05;;;;;;;;;;5070255;28;20361;-68
2022/04/22 15:28:50;;;;;;;1.10;0.60;;;;;;;;;;5070347;28;20044;-69
2022/04/22 15:31:55;;;;;;;1.50;0.50;;;;;;;;;;5070198;28;20037;-68
2022/04/22 15:34:59;;;;;;;1.25;0.80;;;;;;;;;;5069641;28;20040;-69
2022/04/22 15:38:03;;;;;;;2.15;0.80;;;;;;;;;;5070527;28;20040;-67
2022/04/22 15:41:09;;;;;;;1.45;0.75;;;;;;;;;;5070332;28;20469;-67
2022/04/22 15:44:23;;;;;;;1.05;0.68;;;;;;;;;;5070483;28;20040;-68
2022/04/22 15:47:27;;;;;;;1.25;0.63;;;;;;;;;;5070143;28;20481;-68
2022/04/22 15:50:33;;;;;;;2.17;0.70;;;;;;;;;;5070267;28;20036;-66
2022/04/22 15:53:38;;;;;;;3.47;1.05;;;;;;;;;;5070708;28;20045;-69
2022/04/22 15:56:43;;;;;;;1.50;0.60;;;;;;;;;;5070417;28;20032;-70
2022/04/22 15:59:47;;;;;;;2.80;0.70;;;;;;;;;;5069112;28;20045;-71
2022/04/22 16:02:52;;;;;;;2.47;0.77;;;;;;;;;;5069235;28;20045;-68
2022/04/22 16:05:56;;;;;;;0.70;0.68;;;;;;;;;;5069995;28;20036;-68
2022/04/22 16:09:01;;;;;;;3.13;0.82;;;;;;;;;;5070603;28;20045;-69
2022/04/22 16:15:29;;;;;;;3.05;0.80;;;;;;;;;;5070742;28;20143;-68
2022/04/22 16:18:34;;;;;;;1.65;0.90;;;;;;;;;;5069584;28;20381;-68
2022/04/22 16:21:39;;;;;;;1.98;1.10;;;;;;;;;;5069494;28;20045;-68
2022/04/22 16:24:43;;;;;;;4.63;1.10;;;;;;;;;;5070439;28;20041;-68
2022/04/22 16:27:50;;;;;;;1.73;1.00;;;;;;;;;;5073573;28;20036;-69
2022/04/22 16:30:55;;;;;;;1.40;0.82;;;;;;;;;;5073112;28;20044;-69
2022/04/22 16:33:59;;;;;;;2.35;1.13;;;;;;;;;;5073817;28;20044;-68
2022/04/22 16:37:04;;;;;;;4.15;1.48;;;;;;;;;;5073613;28;20040;-70
2022/04/22 16:40:09;;;;;;;2.42;1.30;;;;;;;;;;5072791;28;20040;-70
2022/04/22 16:43:13;;;;;;;4.75;3.40;;;;;;;;;;5073366;28;20048;-69
2022/04/22 16:46:17;;;;;;;1.95;1.13;;;;;;;;;;5072646;28;20405;-67
2022/04/22 16:49:24;;;;;;;1.77;1.20;;;;;;;;;;5071830;28;20044;-68
2022/04/22 16:52:29;;;;;;;1.80;1.33;;;;;;;;;;5072726;28;20351;-69
2022/04/22 16:55:33;;;;;;;4.20;1.60;;;;;;;;;;5071775;28;20037;-67
2022/04/22 16:58:38;;;;;;;3.05;1.40;;;;;;;;;;5073084;28;20049;-68
2022/04/22 17:01:42;;;;;;;3.47;1.65;;;;;;;;;;5072522;28;20052;-69
2022/04/22 17:04:50;;;;;;;3.92;1.33;;;;;;;;;;5072187;28;20032;-67
2022/04/22 17:07:54;;;;;;;1.80;1.40;;;;;;;;;;5072404;28;20056;-71
2022/04/22 17:10:58;;;;;;;1.58;1.33;;;;;;;;;;5072861;28;20041;-68
2022/04/22 17:24:12;;;;;;;2.53;1.45;;;;;;;;;;5071943;28;20040;-68
2022/04/22 17:27:17;;;;;;;4.47;2.85;;;;;;;;;;5071835;28;20294;-69
2022/04/22 17:30:21;;;;;;;1.65;1.50;;;;;;;;;;5071567;28;20040;-68
2022/04/22 17:33:26;;;;;;;5.57;2.83;;;;;;;;;;5071589;28;20040;-69
2022/04/22 17:36:30;;;;;;;6.03;4.32;;;;;;;;;;5071573;28;20036;-69
2022/04/22 17:39:35;;;;;;;2.30;1.80;;;;;;;;;;5070884;28;20164;-69
2022/04/22 17:42:40;;;;;;;5.40;2.53;;;;;;;;;;5070882;28;20374;-70
2022/04/22 17:45:44;;;;;;;3.97;2.80;;;;;;;;;;5072330;28;20052;-69
2022/04/22 17:48:49;;;;;;;4.13;2.05;;;;;;;;;;5071633;28;20037;-69
2022/04/22 17:51:54;;;;;;;3.28;1.80;;;;;;;;;;5071888;28;20040;-69
2022/04/22 17:54:59;;;;;;;4.93;2.40;;;;;;;;;;5071961;28;20473;-70
2022/04/22 17:58:03;;;;;;;2.88;1.80;;;;;;;;;;5071699;28;20044;-69
2022/04/22 18:01:08;;;;;;;3.70;2.45;;;;;;;;;;5071372;28;20151;-69
2022/04/22 18:04:13;;;;;;;3.60;2.28;;;;;;;;;;5071250;28;20422;-70
2022/04/22 18:07:21;;;;;;;6.90;2.92;;;;;;;;;;5070736;28;20048;-69
2022/04/22 18:10:27;;;;;;;10.82;4.75;;;;;;;;;;5071019;28;20374;-70
2022/04/22 18:13:32;;;;;;;6.82;3.65;;;;;;;;;;5070698;28;20206;-69
2022/04/22 18:16:36;;;;;;;6.47;3.30;;;;;;;;;;5070775;28;20048;-69
2022/04/22 18:19:41;;;;;;;8.75;3.15;;;;;;;;;;5070337;28;20033;-69
2022/04/22 18:22:45;;;;;;;4.10;2.80;;;;;;;;;;5069855;28;20041;-69
2022/04/22 18:25:51;;;;;;;8.18;4.40;;;;;;;;;;5069850;28;20048;-69
2022/04/22 18:28:55;;;;;;;8.93;4.68;;;;;;;;;;5069035;28;20365;-69
2022/04/22 18:32:00;;;;;;;24.17;14.60;;;;;;;;;;5069572;28;20060;-69
2022/04/22 18:35:06;;;;;;;14.25;9.60;;;;;;;;;;5068337;28;20051;-69
2022/04/22 18:38:10;;;;;;;10.77;5.43;;;;;;;;;;5067937;28;20162;-69
2022/04/22 18:41:15;;;;;;;16.92;10.98;;;;;;;;;;5068612;28;20063;-69
2022/04/22 18:44:19;;;;;;;14.52;8.48;;;;;;;;;;5068001;28;20039;-69
2022/04/22 18:47:26;;;;;;;12.35;6.88;;;;;;;;;;5067448;28;20044;-69
2022/04/22 18:50:30;;;;;;;14.25;8.65;;;;;;;;;;5067310;28;20036;-69
2022/04/22 18:53:35;;;;;;;15.32;6.97;;;;;;;;;;5066438;28;20508;-69
2022/04/22 18:56:40;;;;;;;11.07;7.13;;;;;;;;;;5068093;28;20210;-69
2022/04/22 18:59:46;;;;;;;16.70;9.15;;;;;;;;;;5067838;28;20127;-69
2022/04/22 19:03:10;;;;;;;12.25;7.63;;;;;;;;;;5066482;28;20040;-69
2022/04/22 19:06:14;;;;;;;11.25;7.15;;;;;;;;;;5065707;28;20059;-69
2022/04/22 19:09:18;;;;;;;17.13;6.78;;;;;;;;;;5067598;28;20052;-69
2022/04/22 19:12:23;;;;;;;10.05;6.85;;;;;;;;;;5068692;28;20036;-69
2022/04/22 19:15:29;;;;;;;12.05;6.80;;;;;;;;;;5068141;28;20047;-70
2022/04/22 19:18:35;;;;;;;10.57;6.60;;;;;;;;;;5070049;28;20063;-70
2022/04/22 19:21:40;;;;;;;11.27;6.93;;;;;;;;;;5069584;28;20515;-72
2022/04/22 19:24:44;;;;;;;11.27;6.93;;;;;;;;;;5069756;28;20524;-70
2022/04/22 19:27:49;;;;;;;9.88;7.20;;;;;;;;;;5069905;28;20063;-69
2022/04/22 19:30:53;;;;;;;11.65;7.10;;;;;;;;;;5069976;28;20045;-70
2022/04/22 19:33:57;;;;;;;11.07;7.15;;;;;;;;;;5070345;28;20047;-70
2022/04/22 19:43:50;;;;;;;10.20;6.97;;;;;;;;;;5069960;28;20055;-71
2022/04/22 19:46:54;;;;;;;13.02;7.85;;;;;;;;;;5070560;28;20496;-71
2022/04/22 19:49:59;;;;;;;10.40;7.10;;;;;;;;;;5069528;28;20048;-70
2022/04/22 19:53:03;;;;;;;13.77;8.43;;;;;;;;;;5070301;28;20052;-70
2022/04/22 19:56:07;;;;;;;14.50;7.85;;;;;;;;;;5070359;28;20071;-71
2022/04/22 19:59:12;;;;;;;14.32;8.55;;;;;;;;;;5069081;28;20044;-71
2022/04/22 20:02:16;;;;;;;15.52;8.52;;;;;;;;;;5073789;28;20064;-70